Time;durP1;ratioP1;P1;durP2;ratioP2;P2;SDS_P1;SDS_P2;PMS_P1;PMS_P2;Temp;Humidity;BMP_temperature;BMP_pressure;BME280_temperature;BME280_humidity;BME280_pressure;Samples;Min_cycle;Max_cycle;Signal;HPM_P1;HPM_P2
2023/10/11 00:02:59;;;;;;;4.85;4.32;;;29.40;99.90;;;;;;4998093;28;20057;-46
2023/10/11 00:05:33;;;;;;;7.20;3.83;;;29.40;99.90;;;;;;4997407;28;20109;-46
2023/10/11 00:08:00;;;;;;;5.53;4.15;;;29.40;99.90;;;;;;4998587;28;20023;-46
2023/10/11 00:10:27;;;;;;;5.40;4.25;;;29.40;99.90;;;;;;4998712;28;20026;-46
2023/10/11 00:12:58;;;;;;;4.70;3.80;;;29.40;99.90;;;;;;4998629;28;20133;-46
2023/10/11 00:15:29;;;;;;;4.85;4.00;;;29.40;99.90;;;;;;4997301;28;20022;-46
2023/10/11 00:17:57;;;;;;;3.83;3.22;;;29.40;99.90;;;;;;4995506;28;20382;-46
2023/10/11 00:20:47;;;;;;;5.47;4.50;;;29.40;99.90;;;;;;4995582;28;20030;-46
2023/10/11 00:23:14;;;;;;;4.57;3.67;;;29.40;99.90;;;;;;4995571;28;20026;-46
2023/10/11 00:25:40;;;;;;;;;;;29.40;99.90;;;;;;4996002;28;20032;-46
2023/10/11 00:28:08;;;;;;;5.57;3.97;;;29.30;99.90;;;;;;4995447;28;19988;-46
2023/10/11 00:30:40;;;;;;;4.25;3.42;;;29.30;99.90;;;;;;4995397;28;20027;-54
2023/10/11 00:33:10;;;;;;;5.97;3.92;;;29.30;99.90;;;;;;4995315;28;20018;-46
2023/10/11 00:35:47;;;;;;;5.05;4.20;;;29.30;99.90;;;;;;4995268;28;20031;-46
2023/10/11 00:38:18;;;;;;;5.35;4.00;;;29.30;99.90;;;;;;4995151;28;20416;-46
2023/10/11 00:40:45;;;;;;;4.43;3.58;;;29.30;99.90;;;;;;4995148;28;20121;-46
2023/10/11 00:43:21;;;;;;;5.22;4.15;;;29.30;99.90;;;;;;4995839;28;20015;-46
2023/10/11 00:45:48;;;;;;;4.55;3.53;;;29.30;99.90;;;;;;4995167;28;20045;-46
2023/10/11 00:48:19;;;;;;;4.60;4.15;;;29.30;99.90;;;;;;4995085;28;20026;-47
2023/10/11 00:50:49;;;;;;;5.72;4.68;;;29.20;99.90;;;;;;4995201;28;20076;-46
2023/10/11 00:53:15;;;;;;;4.75;4.05;;;29.20;99.90;;;;;;4995004;28;20015;-46
2023/10/11 00:55:41;;;;;;;5.13;4.00;;;29.30;99.90;;;;;;4995138;28;20037;-46
2023/10/11 00:58:07;;;;;;;4.22;3.58;;;29.20;99.90;;;;;;4994834;28;20053;-45
2023/10/11 01:00:36;;;;;;;4.28;3.83;;;29.20;99.90;;;;;;4995156;28;20038;-46
2023/10/11 01:03:05;;;;;;;5.03;3.92;;;29.20;99.90;;;;;;4994708;28;20092;-45
2023/10/11 01:05:33;;;;;;;5.88;4.43;;;29.20;99.90;;;;;;4994841;28;20022;-46
2023/10/11 01:07:58;;;;;;;;;;;29.20;99.90;;;;;;4995383;28;20407;-46
2023/10/11 01:10:24;;;;;;;7.28;4.50;;;29.20;99.90;;;;;;4994670;28;19933;-46
2023/10/11 01:12:54;;;;;;;5.35;4.00;;;29.20;99.90;;;;;;4994691;28;20070;-46
2023/10/11 01:15:22;;;;;;;4.40;4.00;;;29.20;99.90;;;;;;4994557;28;20022;-46
2023/10/11 01:17:48;;;;;;;4.70;3.97;;;29.20;99.90;;;;;;4994577;28;20470;-46
2023/10/11 01:20:14;;;;;;;4.97;4.00;;;29.10;99.90;;;;;;4994586;28;20043;-46
2023/10/11 01:22:41;;;;;;;5.00;3.97;;;29.10;99.90;;;;;;4994615;28;20057;-46
2023/10/11 01:25:08;;;;;;;4.55;3.75;;;29.10;99.90;;;;;;4993094;28;20022;-46
2023/10/11 01:27:36;;;;;;;4.53;3.80;;;29.10;99.90;;;;;;4994247;28;20038;-46
2023/10/11 01:30:07;;;;;;;5.22;3.85;;;29.10;99.90;;;;;;4994374;28;20264;-46
2023/10/11 01:32:38;;;;;;;5.43;3.75;;;29.10;99.90;;;;;;4994304;28;20026;-46
2023/10/11 01:35:13;;;;;;;4.53;3.70;;;29.10;99.90;;;;;;4994172;28;20023;-46
2023/10/11 01:37:43;;;;;;;4.88;4.07;;;29.00;99.90;;;;;;4994186;28;20022;-46
2023/10/11 01:40:24;;;;;;;4.85;3.75;;;29.00;99.90;;;;;;4994066;28;20029;-47
2023/10/11 01:42:50;;;;;;;4.20;3.80;;;29.00;99.90;;;;;;4994188;28;20022;-46
2023/10/11 01:45:18;;;;;;;4.93;4.13;;;29.00;99.90;;;;;;4994127;28;20068;-46
2023/10/11 01:47:46;;;;;;;4.55;4.07;;;29.00;99.90;;;;;;4994263;28;20030;-46
2023/10/11 01:50:16;;;;;;;4.18;3.78;;;29.00;99.90;;;;;;4994188;28;20049;-45
2023/10/11 01:52:43;;;;;;;4.47;4.00;;;29.00;99.90;;;;;;4992871;28;20022;-45
2023/10/11 01:55:18;;;;;;;4.75;3.72;;;29.00;99.90;;;;;;4993967;28;20117;-45
2023/10/11 01:57:49;;;;;;;5.32;4.03;;;29.00;99.90;;;;;;4993976;28;20049;-45
2023/10/11 02:02:55;;;;;;;4.50;3.83;;;29.00;99.90;;;;;;5051513;28;20060;-50
2023/10/11 02:05:21;;;;;;;3.90;3.45;;;28.90;99.90;;;;;;5052905;28;20458;-50
2023/10/11 02:07:47;;;;;;;5.93;4.13;;;28.90;99.90;;;;;;5053176;28;20465;-50
2023/10/11 02:10:13;;;;;;;6.07;3.65;;;28.90;99.90;;;;;;5035131;28;20028;-50
2023/10/11 02:12:46;;;;;;;5.43;4.00;;;28.90;99.90;;;;;;5052691;28;20036;-50
2023/10/11 02:15:21;;;;;;;4.57;3.72;;;28.90;99.90;;;;;;5052680;28;20461;-50
2023/10/11 02:17:51;;;;;;;5.75;4.22;;;28.80;99.90;;;;;;5053053;28;20078;-50
2023/10/11 02:20:23;;;;;;;4.28;3.63;;;28.80;99.90;;;;;;5052815;28;20079;-50
2023/10/11 02:22:51;;;;;;;6.38;4.38;;;28.80;99.90;;;;;;5052672;28;20477;-50
2023/10/11 02:25:18;;;;;;;3.90;3.50;;;28.80;99.90;;;;;;5052844;28;20405;-50
2023/10/11 02:27:45;;;;;;;6.40;4.28;;;28.80;99.90;;;;;;5052821;28;20021;-50
2023/10/11 02:30:19;;;;;;;4.07;3.63;;;28.80;99.90;;;;;;5052503;28;20108;-50
2023/10/11 02:32:45;;;;;;;4.55;3.90;;;28.80;99.90;;;;;;5052684;28;20025;-51
2023/10/11 02:35:13;;;;;;;5.57;4.10;;;28.80;99.90;;;;;;5052377;28;20025;-50
2023/10/11 02:37:40;;;;;;;4.90;3.80;;;28.80;99.90;;;;;;5035093;28;20037;-50
2023/10/11 02:40:10;;;;;;;4.93;3.87;;;28.80;99.90;;;;;;5051720;28;20025;-50
2023/10/11 02:42:36;;;;;;;5.53;4.45;;;28.70;99.90;;;;;;5052369;28;20025;-50
2023/10/11 02:45:06;;;;;;;4.90;3.90;;;28.70;99.90;;;;;;5052376;28;20035;-50
2023/10/11 02:47:35;;;;;;;4.80;4.00;;;28.70;99.90;;;;;;5052248;28;20461;-50
2023/10/11 02:50:05;;;;;;;4.00;3.60;;;28.70;99.90;;;;;;5052238;28;20032;-50
2023/10/11 02:52:35;;;;;;;5.53;4.07;;;28.60;99.90;;;;;;5052163;28;20036;-50
2023/10/11 02:55:21;;;;;;;5.05;3.92;;;28.70;99.90;;;;;;5052335;28;20469;-50
2023/10/11 02:57:48;;;;;;;4.65;3.97;;;28.60;99.90;;;;;;5052349;28;20044;-50
2023/10/11 03:00:24;;;;;;;4.93;4.20;;;28.60;99.90;;;;;;5034802;28;20025;-50
2023/10/11 03:02:54;;;;;;;4.57;3.75;;;28.60;99.90;;;;;;5052154;28;20440;-50
2023/10/11 03:05:29;;;;;;;5.22;3.92;;;28.60;99.90;;;;;;5052348;28;20021;-50
2023/10/11 03:08:14;;;;;;;5.05;3.58;;;28.60;99.90;;;;;;5052112;28;20028;-50
2023/10/11 03:10:45;;;;;;;4.13;3.58;;;28.60;99.90;;;;;;5052065;28;20078;-50
2023/10/11 03:13:19;;;;;;;6.65;3.97;;;28.60;99.90;;;;;;5052243;28;20112;-49
2023/10/11 03:15:46;;;;;;;4.55;4.00;;;28.50;99.90;;;;;;5034255;28;20068;-50
2023/10/11 03:18:12;;;;;;;4.85;3.90;;;28.60;99.90;;;;;;5017725;28;20510;-50
2023/10/11 03:20:39;;;;;;;4.15;3.50;;;28.60;99.90;;;;;;5051866;28;20115;-50
2023/10/11 03:23:11;;;;;;;4.18;3.70;;;28.50;99.90;;;;;;5052034;28;20025;-50
2023/10/11 03:25:38;;;;;;;5.28;4.15;;;28.50;99.90;;;;;;5052070;28;20473;-50
2023/10/11 03:28:05;;;;;;;5.15;4.18;;;28.50;99.90;;;;;;5051887;28;20025;-50
2023/10/11 03:30:35;;;;;;;;;;;28.50;99.90;;;;;;5052245;28;20044;-51
2023/10/11 03:33:02;;;;;;;4.28;3.55;;;28.50;99.90;;;;;;5051986;28;19927;-50
2023/10/11 03:35:33;;;;;;;4.22;3.83;;;28.50;99.90;;;;;;5017585;28;20473;-51
2023/10/11 03:38:00;;;;;;;4.85;4.20;;;28.50;99.90;;;;;;5051831;28;20082;-50
2023/10/11 03:40:34;;;;;;;4.30;3.72;;;28.50;99.90;;;;;;5051504;28;20480;-50
2023/10/11 03:43:11;;;;;;;4.45;3.58;;;28.50;99.90;;;;;;5051871;28;20025;-51
2023/10/11 03:45:39;;;;;;;;;;;28.40;99.90;;;;;;5052209;28;20469;-50
2023/10/11 03:48:09;;;;;;;4.20;3.80;;;28.40;99.90;;;;;;5051814;28;19911;-50
2023/10/11 03:50:37;;;;;;;4.05;3.50;;;28.40;99.90;;;;;;5051604;28;20048;-50
2023/10/11 03:53:10;;;;;;;4.43;3.40;;;28.40;99.90;;;;;;5055422;28;20025;-50
2023/10/11 03:55:47;;;;;;;5.47;4.03;;;28.40;99.90;;;;;;5055487;28;20017;-50
2023/10/11 03:58:33;;;;;;;3.78;3.47;;;28.30;99.90;;;;;;5055467;28;20021;-50
2023/10/11 04:01:11;;;;;;;5.20;3.90;;;28.40;99.90;;;;;;5055654;28;20041;-50
2023/10/11 04:03:40;;;;;;;4.07;3.40;;;28.30;99.90;;;;;;5055297;28;20021;-50
2023/10/11 04:06:14;;;;;;;5.25;3.80;;;28.30;99.90;;;;;;5055287;28;20021;-50
2023/10/11 04:08:47;;;;;;;3.55;3.17;;;28.30;99.90;;;;;;5055222;28;20027;-50
2023/10/11 04:11:19;;;;;;;4.45;3.80;;;28.30;99.90;;;;;;5055165;28;20547;-50
2023/10/11 04:13:49;;;;;;;4.05;3.65;;;28.30;99.90;;;;;;5054944;28;20079;-50
2023/10/11 04:16:18;;;;;;;3.92;3.33;;;28.30;99.90;;;;;;5054940;28;20025;-50
2023/10/11 04:18:44;;;;;;;3.95;3.40;;;28.30;99.90;;;;;;5054883;28;20027;-50
2023/10/11 04:23:36;;;;;;;4.10;3.50;;;28.30;99.90;;;;;;5054939;28;20096;-50
2023/10/11 04:26:08;;;;;;;4.00;3.60;;;28.30;99.90;;;;;;5036871;28;20025;-50
2023/10/11 04:28:34;;;;;;;3.65;3.10;;;28.30;99.90;;;;;;5054591;28;20021;-50
2023/10/11 04:33:50;;;;;;;4.10;3.42;;;28.20;99.90;;;;;;5054601;28;20047;-50
2023/10/11 04:36:20;;;;;;;5.28;3.47;;;28.20;99.90;;;;;;5054721;28;20358;-50
2023/10/11 04:38:50;;;;;;;3.67;3.15;;;28.20;99.90;;;;;;5054504;28;20033;-50
2023/10/11 04:41:18;;;;;;;6.57;4.28;;;28.20;99.90;;;;;;5054420;28;20037;-50
2023/10/11 04:43:50;;;;;;;4.70;3.80;;;28.20;99.90;;;;;;5054522;28;20076;-50
2023/10/11 04:46:18;;;;;;;7.05;4.03;;;28.20;99.90;;;;;;5036661;28;20029;-50
2023/10/11 04:48:45;;;;;;;6.80;3.75;;;28.20;99.90;;;;;;5054307;28;20419;-50
2023/10/11 04:54:13;;;;;;;7.03;4.43;;;28.20;99.90;;;;;;5054295;28;20055;-50
2023/10/11 04:59:12;;;;;;;4.63;3.45;;;28.20;99.90;;;;;;5054207;28;20415;-50
2023/10/11 05:04:26;;;;;;;6.90;4.38;;;28.20;99.90;;;;;;5054008;28;20057;-48
2023/10/11 05:06:53;;;;;;;6.10;3.60;;;28.20;99.90;;;;;;5054276;28;20449;-49
2023/10/11 05:14:40;;;;;;;5.03;3.67;;;28.10;99.90;;;;;;5054026;28;20487;-49
2023/10/11 05:19:44;;;;;;;5.45;4.07;;;28.10;99.90;;;;;;5053881;28;20063;-49
2023/10/11 05:32:54;;;;;;;4.72;3.40;;;28.00;99.90;;;;;;5053552;28;20017;-50
2023/10/11 05:51:30;;;;;;;4.28;3.55;;;28.00;99.90;;;;;;5053336;28;20721;-49
2023/10/11 05:54:04;;;;;;;5.32;3.55;;;28.00;99.90;;;;;;5053131;28;20028;-50
2023/10/11 05:56:45;;;;;;;4.22;3.50;;;28.00;99.90;;;;;;5052956;28;20029;-50
2023/10/11 05:59:13;;;;;;;4.95;3.40;;;28.00;99.90;;;;;;5034933;28;20025;-50
2023/10/11 06:01:43;;;;;;;4.88;4.03;;;28.00;99.90;;;;;;5052633;28;20079;-50
2023/10/11 06:04:13;;;;;;;3.83;3.25;;;28.00;99.90;;;;;;5052679;28;20023;-50
2023/10/11 06:06:42;;;;;;;4.45;3.47;;;27.90;99.90;;;;;;5052934;28;20059;-50
2023/10/11 06:09:18;;;;;;;3.72;3.22;;;28.00;99.90;;;;;;5052799;28;20465;-50
2023/10/11 06:11:50;;;;;;;4.72;3.63;;;27.90;99.90;;;;;;5052730;28;20496;-50
2023/10/11 06:14:18;;;;;;;4.22;3.08;;;27.90;99.90;;;;;;5051824;28;20552;-50
2023/10/11 06:16:49;;;;;;;;;;;27.90;99.90;;;;;;5052873;28;20044;-50
2023/10/11 06:19:16;;;;;;;4.18;3.22;;;27.90;99.90;;;;;;5052741;28;19915;-50
2023/10/11 06:21:57;;;;;;;4.32;3.10;;;27.90;99.90;;;;;;5052567;28;20451;-50
2023/10/11 06:24:33;;;;;;;6.45;3.00;;;27.90;99.90;;;;;;5034594;28;20029;-52
2023/10/11 06:29:39;;;;;;;4.50;3.47;;;27.90;99.90;;;;;;5052624;28;20075;-50
2023/10/11 06:32:11;;;;;;;3.83;3.00;;;27.90;99.90;;;;;;5052389;28;20104;-51
2023/10/11 06:34:40;;;;;;;4.20;3.42;;;27.90;99.90;;;;;;5034490;28;20092;-51
2023/10/11 06:37:08;;;;;;;4.60;3.25;;;27.90;99.90;;;;;;5052394;28;20358;-50
2023/10/11 06:42:17;;;;;;;4.63;3.63;;;27.80;99.90;;;;;;5052327;28;20035;-50
2023/10/11 06:44:47;;;;;;;;;;;27.80;99.90;;;;;;5052837;28;20044;-51
2023/10/11 06:47:13;;;;;;;4.05;3.45;;;27.80;99.90;;;;;;5052274;28;19911;-50
2023/10/11 06:49:47;;;;;;;6.20;3.80;;;27.80;99.90;;;;;;5052140;28;20017;-52
2023/10/11 06:52:19;;;;;;;3.85;3.13;;;27.80;99.90;;;;;;5052025;28;20071;-51
2023/10/11 06:55:00;;;;;;;4.53;3.60;;;27.80;99.90;;;;;;5052259;28;20021;-50
2023/10/11 06:57:26;;;;;;;6.10;3.78;;;27.80;99.90;;;;;;5052023;28;20045;-51
2023/10/11 06:59:56;;;;;;;6.80;3.80;;;27.80;99.90;;;;;;5052000;28;20961;-51
2023/10/11 07:02:32;;;;;;;4.68;3.38;;;27.90;99.90;;;;;;5052051;28;20473;-51
2023/10/11 07:05:17;;;;;;;3.60;3.13;;;27.90;99.90;;;;;;5052350;28;20099;-51
2023/10/11 07:07:52;;;;;;;4.70;3.35;;;27.90;99.90;;;;;;5052071;28;20452;-51
2023/10/11 07:10:34;;;;;;;5.15;3.85;;;27.90;99.90;;;;;;5052100;28;20480;-51
2023/10/11 07:13:03;;;;;;;7.10;4.22;;;27.90;99.90;;;;;;5052238;28;20071;-51
2023/10/11 07:15:42;;;;;;;5.35;4.60;;;27.90;99.90;;;;;;5052138;28;20104;-51
2023/10/11 07:18:25;;;;;;;7.20;4.63;;;27.90;99.90;;;;;;5051797;28;20101;-51
2023/10/11 07:21:07;;;;;;;6.35;4.75;;;27.90;99.90;;;;;;5051799;28;20481;-51
2023/10/11 07:24:19;;;;;;;5.53;4.18;;;28.00;99.90;;;;;;5052101;28;20128;-52
2023/10/11 07:28:59;;;;;;;4.32;3.65;;;28.00;99.90;;;;;;5055869;28;20025;-52
2023/10/11 07:32:09;;;;;;;6.07;4.10;;;28.00;99.90;;;;;;5055769;28;20029;-49
2023/10/11 07:34:18;;;;;;;4.80;4.00;;;28.00;99.90;;;;;;5047462;28;20029;-48
2023/10/11 07:36:55;;;;;;;4.65;3.45;;;28.10;99.90;;;;;;5055730;28;20460;-49
2023/10/11 07:41:52;;;;;;;4.70;3.70;;;28.10;99.90;;;;;;5055490;28;20091;-48
2023/10/11 07:44:18;;;;;;;4.70;3.38;;;28.10;99.90;;;;;;5055528;28;20132;-49
2023/10/11 07:46:48;;;;;;;4.20;3.53;;;28.20;99.90;;;;;;5055559;28;20029;-49
2023/10/11 07:49:22;;;;;;;5.95;3.85;;;28.20;99.90;;;;;;5055363;28;20020;-49
2023/10/11 07:51:52;;;;;;;4.90;3.92;;;28.20;99.90;;;;;;5055517;28;20103;-50
2023/10/11 07:54:19;;;;;;;5.63;3.67;;;28.20;99.90;;;;;;5055408;28;20028;-50
2023/10/11 07:56:52;;;;;;;4.35;3.53;;;28.20;99.90;;;;;;5055482;28;20037;-49
2023/10/11 07:59:23;;;;;;;5.72;3.92;;;28.30;99.90;;;;;;5055537;28;20029;-49
2023/10/11 08:01:53;;;;;;;4.35;3.70;;;28.30;99.90;;;;;;5055222;28;20076;-50
2023/10/11 08:04:22;;;;;;;4.53;3.38;;;28.30;99.90;;;;;;5055264;28;20029;-50
2023/10/11 08:06:59;;;;;;;4.57;3.28;;;28.30;99.90;;;;;;5055216;28;20025;-50
2023/10/11 08:09:26;;;;;;;4.47;3.50;;;28.30;99.90;;;;;;5055182;28;20017;-50
2023/10/11 08:11:59;;;;;;;5.90;3.75;;;28.30;99.90;;;;;;5055108;28;20011;-49
2023/10/11 08:14:32;;;;;;;4.93;3.90;;;28.30;99.90;;;;;;5055003;28;20033;-49
2023/10/11 08:16:59;;;;;;;5.32;3.90;;;28.30;99.90;;;;;;5054844;28;20431;-50
2023/10/11 08:19:25;;;;;;;4.55;3.40;;;28.40;99.90;;;;;;5054808;28;20048;-50
2023/10/11 08:21:57;;;;;;;4.03;3.50;;;28.40;99.90;;;;;;5054817;28;20425;-49
2023/10/11 08:24:27;;;;;;;7.10;3.90;;;28.40;99.90;;;;;;5054868;28;20021;-49
2023/10/11 08:27:08;;;;;;;4.30;3.08;;;28.40;99.90;;;;;;5036813;28;20024;-49
2023/10/11 08:29:35;;;;;;;3.95;3.25;;;28.40;99.90;;;;;;5054906;28;20393;-50
2023/10/11 08:32:06;;;;;;;5.65;3.67;;;28.40;99.90;;;;;;5054652;28;20013;-50
2023/10/11 08:34:32;;;;;;;4.68;3.65;;;28.40;99.90;;;;;;5036527;28;20037;-49
2023/10/11 08:36:58;;;;;;;4.80;3.65;;;28.40;99.90;;;;;;5053809;28;20071;-50
2023/10/11 08:39:42;;;;;;;4.28;3.40;;;28.40;99.90;;;;;;5054585;28;20025;-50
2023/10/11 08:42:17;;;;;;;8.00;3.65;;;28.50;99.90;;;;;;5054482;28;20029;-50
2023/10/11 08:44:44;;;;;;;6.13;3.80;;;28.50;99.90;;;;;;5054336;28;20028;-50
2023/10/11 08:47:13;;;;;;;;;;;28.50;99.90;;;;;;5054917;28;20110;-50
2023/10/11 08:49:48;;;;;;;5.85;3.60;;;28.50;99.90;;;;;;5054504;28;19905;-50
2023/10/11 08:52:25;;;;;;;7.55;3.88;;;28.50;99.90;;;;;;5054340;28;20104;-50
2023/10/11 08:54:51;;;;;;;4.80;3.65;;;28.50;99.90;;;;;;5054265;28;20025;-50
2023/10/11 08:57:25;;;;;;;3.72;3.30;;;28.50;99.90;;;;;;5054160;28;20033;-50
2023/10/11 08:59:56;;;;;;;4.95;3.33;;;28.50;99.90;;;;;;5054114;28;20070;-49
2023/10/11 09:02:24;;;;;;;5.93;3.53;;;28.60;99.90;;;;;;5037681;28;20060;-50
2023/10/11 09:05:06;;;;;;;3.67;3.13;;;28.60;99.90;;;;;;5034165;28;20021;-50
2023/10/11 09:07:45;;;;;;;4.60;3.05;;;28.60;99.90;;;;;;5034108;28;20036;-50
2023/10/11 09:10:27;;;;;;;4.80;3.35;;;28.60;99.90;;;;;;5034036;28;20414;-50
2023/10/11 09:13:08;;;;;;;6.00;3.35;;;28.70;99.90;;;;;;5034057;28;20017;-50
2023/10/11 09:15:42;;;;;;;5.32;3.30;;;28.60;99.90;;;;;;5034137;28;20017;-50
2023/10/11 09:18:18;;;;;;;4.80;3.20;;;28.70;99.90;;;;;;5034152;28;20108;-50
2023/10/11 09:23:51;;;;;;;4.50;3.08;;;28.70;99.90;;;;;;5034116;28;20133;-50
2023/10/11 09:26:34;;;;;;;4.65;3.78;;;28.70;99.90;;;;;;5033732;28;20029;-50
2023/10/11 09:29:03;;;;;;;7.22;3.60;;;28.80;99.90;;;;;;5033753;28;20032;-51
2023/10/11 09:31:32;;;;;;;4.05;3.60;;;28.80;99.90;;;;;;5032330;28;20486;-50
2023/10/11 09:34:05;;;;;;;4.90;3.63;;;28.80;99.90;;;;;;5033659;28;20025;-50
2023/10/11 09:36:31;;;;;;;5.95;3.58;;;28.80;99.90;;;;;;5033633;28;20104;-50
2023/10/11 09:38:58;;;;;;;4.30;3.60;;;28.90;99.90;;;;;;5033609;28;20505;-50
2023/10/11 09:41:25;;;;;;;;;;;28.90;99.90;;;;;;5033856;28;20033;-50
2023/10/11 09:43:59;;;;;;;4.13;3.70;;;29.00;99.90;;;;;;5033444;28;19909;-50
2023/10/11 09:46:29;;;;;;;4.57;3.58;;;29.00;99.90;;;;;;5033363;28;20032;-49
2023/10/11 09:49:04;;;;;;;6.55;3.95;;;29.00;99.90;;;;;;5033277;28;20100;-50
2023/10/11 09:51:30;;;;;;;5.35;3.83;;;29.00;99.90;;;;;;5033310;28;20021;-50
2023/10/11 09:54:02;;;;;;;4.47;3.88;;;29.00;99.90;;;;;;5033357;28;20378;-50
2023/10/11 09:56:35;;;;;;;4.88;4.20;;;29.10;99.90;;;;;;5033166;28;20104;-50
2023/10/11 09:59:25;;;;;;;5.18;3.80;;;29.10;99.90;;;;;;5033139;28;20021;-51
2023/10/11 10:02:12;;;;;;;6.40;4.50;;;29.10;99.90;;;;;;5044944;28;20559;-50
2023/10/11 10:04:49;;;;;;;5.53;3.88;;;29.20;99.90;;;;;;5053088;28;20500;-50
2023/10/11 10:07:25;;;;;;;6.07;4.43;;;29.10;99.90;;;;;;5052937;28;20397;-50
2023/10/11 10:09:59;;;;;;;6.65;4.43;;;29.20;99.90;;;;;;5052841;28;20020;-50
2023/10/11 10:12:31;;;;;;;6.57;4.38;;;29.20;99.90;;;;;;5052668;28;20029;-50
2023/10/11 10:15:04;;;;;;;4.97;4.28;;;29.20;99.90;;;;;;5052847;28;20025;-50
2023/10/11 10:17:30;;;;;;;5.68;4.30;;;29.20;99.90;;;;;;5052676;28;20075;-51
2023/10/11 10:20:00;;;;;;;6.00;4.40;;;29.30;99.90;;;;;;5052631;28;20432;-50
2023/10/11 10:22:32;;;;;;;5.03;4.03;;;29.30;99.90;;;;;;5052754;28;20028;-50
2023/10/11 10:25:18;;;;;;;6.47;5.32;;;29.40;99.90;;;;;;5052556;28;20017;-50
2023/10/11 10:27:46;;;;;;;6.72;5.32;;;29.40;99.90;;;;;;5052483;28;20025;-50
2023/10/11 10:30:21;;;;;;;6.13;4.75;;;29.40;99.90;;;;;;5052755;28;20385;-50
2023/10/11 10:33:18;;;;;;;6.72;5.32;;;29.40;99.90;;;;;;5052465;28;20020;-50
2023/10/11 10:35:44;;;;;;;6.15;4.90;;;29.50;99.90;;;;;;5052489;28;20028;-50
2023/10/11 10:38:10;;;;;;;7.43;5.82;;;29.50;99.90;;;;;;5034736;28;20472;-50
2023/10/11 10:40:45;;;;;;;7.40;5.00;;;29.50;99.90;;;;;;5052162;28;20037;-50
2023/10/11 10:43:22;;;;;;;5.93;5.13;;;29.50;99.90;;;;;;5052528;28;20036;-50
2023/10/11 10:45:52;;;;;;;8.80;6.57;;;29.60;99.90;;;;;;5052467;28;20017;-50
2023/10/11 10:48:24;;;;;;;8.52;6.05;;;29.60;99.90;;;;;;5052362;28;20262;-50
2023/10/11 10:51:04;;;;;;;8.52;5.80;;;29.60;99.90;;;;;;5052294;28;20032;-50
2023/10/11 10:53:50;;;;;;;7.32;5.80;;;29.60;99.90;;;;;;5052348;28;20135;-50
2023/10/11 10:56:26;;;;;;;7.07;5.93;;;29.70;99.90;;;;;;5052156;28;20021;-50
2023/10/11 10:59:08;;;;;;;7.88;5.88;;;29.70;99.90;;;;;;5052001;28;20033;-50
2023/10/11 11:01:35;;;;;;;7.78;6.47;;;29.70;99.90;;;;;;5033568;28;20049;-50
2023/10/11 11:04:11;;;;;;;7.07;6.15;;;29.70;99.90;;;;;;5051999;28;20441;-50
2023/10/11 11:06:40;;;;;;;7.83;6.30;;;29.80;99.90;;;;;;5052057;28;20029;-50
2023/10/11 11:09:30;;;;;;;7.07;6.03;;;29.80;99.90;;;;;;5051949;28;20025;-50
2023/10/11 11:12:17;;;;;;;8.13;6.32;;;29.80;99.90;;;;;;5051555;28;20044;-52
2023/10/11 11:14:55;;;;;;;6.78;5.65;;;29.80;99.90;;;;;;5052060;28;20029;-51
2023/10/11 11:17:45;;;;;;;8.20;6.32;;;29.90;99.90;;;;;;5051968;28;20032;-51
2023/10/11 11:20:15;;;;;;;8.75;6.20;;;29.90;99.90;;;;;;5051920;28;20036;-51
2023/10/11 11:22:46;;;;;;;7.88;6.60;;;29.90;99.90;;;;;;5051991;28;20481;-50
2023/10/11 11:25:34;;;;;;;8.15;6.50;;;29.90;99.90;;;;;;5052099;28;20025;-50
2023/10/11 11:28:16;;;;;;;7.57;6.78;;;29.90;99.90;;;;;;5051656;28;20465;-52
2023/10/11 11:31:10;;;;;;;8.35;6.47;;;30.00;99.90;;;;;;5052019;28;20035;-51
2023/10/11 11:33:47;;;;;;;9.77;7.13;;;30.00;99.90;;;;;;5051766;28;20389;-50
2023/10/11 11:36:34;;;;;;;8.25;7.13;;;30.00;99.90;;;;;;5051911;28;20025;-51
2023/10/11 11:41:52;;;;;;;9.48;8.23;;;30.00;99.90;;;;;;5036813;28;20072;-51
2023/10/11 11:44:27;;;;;;;9.30;7.90;;;30.10;99.90;;;;;;5051704;28;20021;-51
2023/10/11 11:46:54;;;;;;;12.45;7.93;;;30.10;99.90;;;;;;5051525;28;20056;-51
2023/10/11 11:49:21;;;;;;;;;;;30.10;99.90;;;;;;5051972;28;20477;-51
2023/10/11 11:51:55;;;;;;;11.18;8.52;;;30.10;99.90;;;;;;5051691;28;19904;-51
2023/10/11 11:54:31;;;;;;;9.80;7.95;;;30.10;99.90;;;;;;5033781;28;20155;-50
2023/10/11 11:56:57;;;;;;;9.82;8.45;;;30.20;99.90;;;;;;5051549;28;20060;-51
2023/10/11 11:59:29;;;;;;;9.45;8.23;;;30.20;99.90;;;;;;5051622;28;20026;-51
2023/10/11 12:01:59;;;;;;;9.85;8.35;;;30.20;99.90;;;;;;5051239;28;20171;-51
2023/10/11 12:04:29;;;;;;;10.05;8.57;;;30.20;99.90;;;;;;5034382;28;20063;-50
2023/10/11 12:07:09;;;;;;;11.43;8.80;;;30.30;99.90;;;;;;5051375;28;20025;-52
2023/10/11 12:09:37;;;;;;;9.57;8.45;;;30.30;99.90;;;;;;5051301;28;20025;-50
2023/10/11 12:12:05;;;;;;;9.52;8.48;;;30.30;99.90;;;;;;5052093;28;20078;-50
2023/10/11 12:14:38;;;;;;;10.15;8.23;;;30.30;99.90;;;;;;5055083;28;20027;-50
2023/10/11 12:17:11;;;;;;;11.93;8.07;;;30.30;99.90;;;;;;5054963;28;20456;-50
2023/10/11 12:19:41;;;;;;;10.18;8.13;;;30.30;99.90;;;;;;5054922;28;20036;-50
2023/10/11 12:22:13;;;;;;;10.70;8.52;;;30.40;99.90;;;;;;5054893;28;20029;-50
2023/10/11 12:24:44;;;;;;;9.35;7.63;;;30.40;99.90;;;;;;5054894;28;20040;-50
2023/10/11 12:27:11;;;;;;;10.85;8.18;;;30.40;99.90;;;;;;5054754;28;20029;-50
2023/10/11 12:29:38;;;;;;;12.18;8.63;;;30.40;99.90;;;;;;5054823;28;20464;-50
2023/10/11 12:32:04;;;;;;;12.50;8.25;;;30.40;99.90;;;;;;5054767;28;20104;-50
2023/10/11 12:34:32;;;;;;;12.10;8.20;;;30.40;99.90;;;;;;5054738;28;20025;-52
2023/10/11 12:36:57;;;;;;;;;;;30.40;99.90;;;;;;5055091;28;20025;-51
2023/10/11 12:39:29;;;;;;;9.00;7.53;;;30.50;99.90;;;;;;5054468;28;19911;-50
2023/10/11 12:41:59;;;;;;;10.80;7.75;;;30.40;99.90;;;;;;5054482;28;20033;-50
2023/10/11 12:44:28;;;;;;;10.15;7.63;;;30.50;99.90;;;;;;5054516;28;20019;-51
2023/10/11 12:46:58;;;;;;;10.18;8.25;;;30.50;99.90;;;;;;5054485;28;20029;-51
2023/10/11 12:49:27;;;;;;;8.02;6.88;;;30.50;99.90;;;;;;5054273;28;20021;-49
2023/10/11 12:51:54;;;;;;;8.98;7.65;;;30.50;99.90;;;;;;5054395;28;20094;-49
2023/10/11 12:54:20;;;;;;;9.38;7.38;;;30.60;99.90;;;;;;5054496;28;20025;-51
2023/10/11 12:56:46;;;;;;;11.25;7.90;;;30.60;99.90;;;;;;5054260;28;20074;-50
2023/10/11 12:59:13;;;;;;;9.52;7.20;;;30.50;99.90;;;;;;5054323;28;20064;-50
2023/10/11 13:01:49;;;;;;;8.60;7.10;;;30.60;99.90;;;;;;5053922;28;20098;-51
2023/10/11 13:04:23;;;;;;;7.20;6.50;;;30.60;99.90;;;;;;5054292;28;20052;-51
2023/10/11 13:06:50;;;;;;;8.57;6.55;;;30.60;99.90;;;;;;5054264;28;20036;-51
2023/10/11 13:09:21;;;;;;;8.95;6.30;;;30.60;99.90;;;;;;5054386;28;20023;-50
2023/10/11 13:11:48;;;;;;;9.05;7.30;;;30.60;99.90;;;;;;5036141;28;20029;-51
2023/10/11 13:14:18;;;;;;;8.82;7.68;;;30.60;99.90;;;;;;5036156;28;20556;-51
2023/10/11 13:16:54;;;;;;;7.00;6.20;;;30.60;99.90;;;;;;5053945;28;20025;-51
2023/10/11 13:19:24;;;;;;;8.48;6.65;;;30.60;99.90;;;;;;5054166;28;20427;-51
2023/10/11 13:21:55;;;;;;;8.88;6.82;;;30.70;99.90;;;;;;5054086;28;20025;-51
2023/10/11 13:24:23;;;;;;;8.52;6.47;;;30.70;99.90;;;;;;5053759;28;20157;-51
2023/10/11 13:26:56;;;;;;;7.80;6.28;;;30.70;99.90;;;;;;5054011;28;20032;-51
2023/10/11 13:29:24;;;;;;;6.82;6.13;;;30.70;99.90;;;;;;5053906;28;20393;-50
2023/10/11 13:31:56;;;;;;;7.85;6.80;;;30.70;99.90;;;;;;5053938;28;20025;-50
2023/10/11 13:34:28;;;;;;;8.00;6.40;;;30.70;99.90;;;;;;5054031;28;20040;-50
2023/10/11 13:36:57;;;;;;;7.90;6.65;;;30.70;99.90;;;;;;5053550;28;20032;-51
2023/10/11 13:39:31;;;;;;;7.65;6.20;;;30.70;99.90;;;;;;5053536;28;20029;-52
2023/10/11 13:42:09;;;;;;;7.55;6.07;;;30.70;99.90;;;;;;5053324;28;20032;-52
2023/10/11 13:44:37;;;;;;;7.70;6.20;;;30.70;99.90;;;;;;5053292;28;20024;-51
2023/10/11 13:47:04;;;;;;;8.18;7.00;;;30.70;99.90;;;;;;5053432;28;20025;-52
2023/10/11 13:49:33;;;;;;;8.60;6.63;;;30.70;99.90;;;;;;5035672;28;20499;-51
2023/10/11 13:52:03;;;;;;;6.90;6.00;;;30.70;99.90;;;;;;5035190;28;20033;-51
2023/10/11 13:54:36;;;;;;;7.10;6.00;;;30.70;99.90;;;;;;5053191;28;20021;-52
2023/10/11 13:57:18;;;;;;;6.65;5.30;;;30.70;99.90;;;;;;5053064;28;20079;-51
2023/10/11 13:59:50;;;;;;;6.38;5.43;;;30.70;99.90;;;;;;5052751;28;20021;-50
2023/10/11 14:02:44;;;;;;;7.32;5.97;;;30.80;99.90;;;;;;5052663;28;20045;-50
2023/10/11 14:05:13;;;;;;;5.88;5.03;;;30.70;99.90;;;;;;5052995;28;20556;-50
2023/10/11 14:10:22;;;;;;;6.80;5.78;;;30.70;99.90;;;;;;5052793;28;20381;-51
2023/10/11 14:12:48;;;;;;;6.88;5.72;;;30.70;99.90;;;;;;5052865;28;20112;-51
2023/10/11 14:15:18;;;;;;;6.63;5.57;;;30.80;99.90;;;;;;5052567;28;20025;-50
2023/10/11 14:17:47;;;;;;;8.18;6.22;;;30.80;99.90;;;;;;5052663;28;20036;-51
2023/10/11 14:20:19;;;;;;;7.15;5.50;;;30.70;99.90;;;;;;5052835;28;20029;-51
2023/10/11 14:22:52;;;;;;;8.82;6.00;;;30.70;99.90;;;;;;5052691;28;20091;-50